sensor_id;sensor_type;location;lat;lon;timestamp;P1;durP1;ratioP1;P2;durP2;ratioP2
21517;SDS011;61765;45.794;24.150;2023-07-13T00:00:30;16.40;;;13.15;;
21517;SDS011;61765;45.794;24.150;2023-07-13T00:08:40;17.48;;;13.65;;
21517;SDS011;61765;45.794;24.150;2023-07-13T00:16:46;17.08;;;12.70;;
21517;SDS011;61765;45.794;24.150;2023-07-13T00:24:54;14.88;;;12.75;;
21517;SDS011;61765;45.794;24.150;2023-07-13T00:33:00;16.48;;;12.20;;
21517;SDS011;61765;45.794;24.150;2023-07-13T00:41:21;16.02;;;12.38;;
21517;SDS011;61765;45.794;24.150;2023-07-13T00:49:27;14.10;;;12.38;;
21517;SDS011;61765;45.794;24.150;2023-07-13T00:57:38;19.15;;;13.63;;
21517;SDS011;61765;45.794;24.150;2023-07-13T01:05:44;15.70;;;12.55;;
21517;SDS011;61765;45.794;24.150;2023-07-13T01:13:55;17.80;;;12.30;;
21517;SDS011;61765;45.794;24.150;2023-07-13T01:22:06;16.20;;;12.85;;
21517;SDS011;61765;45.794;24.150;2023-07-13T01:30:13;18.00;;;12.00;;
21517;SDS011;61765;45.794;24.150;2023-07-13T01:38:22;17.20;;;12.40;;
21517;SDS011;61765;45.794;24.150;2023-07-13T01:46:28;15.27;;;10.95;;
21517;SDS011;61765;45.794;24.150;2023-07-13T01:54:36;14.57;;;11.30;;
21517;SDS011;61765;45.794;24.150;2023-07-13T02:02:41;14.13;;;11.52;;
21517;SDS011;61765;45.794;24.150;2023-07-13T02:10:49;15.35;;;10.90;;
21517;SDS011;61765;45.794;24.150;2023-07-13T02:18:55;15.65;;;11.05;;
21517;SDS011;61765;45.794;24.150;2023-07-13T02:27:05;14.60;;;11.13;;
21517;SDS011;61765;45.794;24.150;2023-07-13T02:35:11;13.73;;;10.70;;
21517;SDS011;61765;45.794;24.150;2023-07-13T02:43:19;17.92;;;12.05;;
21517;SDS011;61765;45.794;24.150;2023-07-13T02:51:24;16.38;;;10.68;;
21517;SDS011;61765;45.794;24.150;2023-07-13T02:59:33;15.05;;;10.68;;
21517;SDS011;61765;45.794;24.150;2023-07-13T03:07:40;13.98;;;10.10;;
21517;SDS011;61765;45.794;24.150;2023-07-13T03:15:51;13.32;;;10.40;;
21517;SDS011;61765;45.794;24.150;2023-07-13T03:23:56;15.35;;;10.63;;
21517;SDS011;61765;45.794;24.150;2023-07-13T03:32:05;12.68;;;9.55;;
21517;SDS011;61765;45.794;24.150;2023-07-13T03:40:12;14.32;;;10.30;;
21517;SDS011;61765;45.794;24.150;2023-07-13T03:48:22;17.05;;;10.23;;
21517;SDS011;61765;45.794;24.150;2023-07-13T03:56:28;16.77;;;10.80;;
21517;SDS011;61765;45.794;24.150;2023-07-13T04:04:39;12.75;;;9.85;;
21517;SDS011;61765;45.794;24.150;2023-07-13T04:12:45;13.18;;;10.02;;
21517;SDS011;61765;45.794;24.150;2023-07-13T04:20:53;17.88;;;10.15;;
21517;SDS011;61765;45.794;24.150;2023-07-13T04:28:58;14.20;;;9.02;;
21517;SDS011;61765;45.794;24.150;2023-07-13T04:37:07;14.98;;;8.95;;
21517;SDS011;61765;45.794;24.150;2023-07-13T04:45:14;11.98;;;8.52;;
21517;SDS011;61765;45.794;24.150;2023-07-13T04:53:22;16.98;;;7.32;;
21517;SDS011;61765;45.794;24.150;2023-07-13T05:01:28;13.82;;;7.05;;
21517;SDS011;61765;45.794;24.150;2023-07-13T05:09:36;13.00;;;6.50;;
21517;SDS011;61765;45.794;24.150;2023-07-13T05:17:46;13.98;;;6.85;;
21517;SDS011;61765;45.794;24.150;2023-07-13T05:25:55;10.15;;;6.13;;
21517;SDS011;61765;45.794;24.150;2023-07-13T05:34:00;9.10;;;6.30;;
21517;SDS011;61765;45.794;24.150;2023-07-13T05:42:09;13.30;;;6.10;;
21517;SDS011;61765;45.794;24.150;2023-07-13T05:50:15;13.23;;;6.47;;
21517;SDS011;61765;45.794;24.150;2023-07-13T05:58:23;9.90;;;6.30;;
21517;SDS011;61765;45.794;24.150;2023-07-13T06:06:31;11.25;;;7.18;;
21517;SDS011;61765;45.794;24.150;2023-07-13T06:14:39;9.05;;;5.88;;
21517;SDS011;61765;45.794;24.150;2023-07-13T06:22:45;10.32;;;6.03;;
21517;SDS011;61765;45.794;24.150;2023-07-13T06:30:53;7.80;;;5.35;;
21517;SDS011;61765;45.794;24.150;2023-07-13T06:38:58;13.48;;;5.55;;
21517;SDS011;61765;45.794;24.150;2023-07-13T06:47:06;9.40;;;5.38;;
21517;SDS011;61765;45.794;24.150;2023-07-13T06:55:12;10.73;;;5.38;;
21517;SDS011;61765;45.794;24.150;2023-07-13T07:03:20;11.63;;;5.60;;
21517;SDS011;61765;45.794;24.150;2023-07-13T07:11:25;7.95;;;5.20;;
21517;SDS011;61765;45.794;24.150;2023-07-13T07:19:35;10.25;;;5.30;;
21517;SDS011;61765;45.794;24.150;2023-07-13T07:27:42;10.03;;;4.90;;
21517;SDS011;61765;45.794;24.150;2023-07-13T07:35:53;13.15;;;5.35;;
21517;SDS011;61765;45.794;24.150;2023-07-13T07:44:01;6.77;;;5.00;;
21517;SDS011;61765;45.794;24.150;2023-07-13T07:52:11;13.18;;;5.55;;
21517;SDS011;61765;45.794;24.150;2023-07-13T08:00:17;14.15;;;4.57;;
21517;SDS011;61765;45.794;24.150;2023-07-13T08:08:28;12.93;;;5.18;;
21517;SDS011;61765;45.794;24.150;2023-07-13T08:16:34;10.32;;;5.43;;
21517;SDS011;61765;45.794;24.150;2023-07-13T08:24:42;12.57;;;4.88;;
21517;SDS011;61765;45.794;24.150;2023-07-13T08:32:49;9.48;;;5.38;;
21517;SDS011;61765;45.794;24.150;2023-07-13T08:40:57;14.18;;;6.00;;
21517;SDS011;61765;45.794;24.150;2023-07-13T08:49:03;13.07;;;5.25;;
21517;SDS011;61765;45.794;24.150;2023-07-13T08:57:18;17.80;;;6.40;;
21517;SDS011;61765;45.794;24.150;2023-07-13T09:05:26;14.20;;;5.25;;
21517;SDS011;61765;45.794;24.150;2023-07-13T09:13:39;10.70;;;4.93;;
21517;SDS011;61765;45.794;24.150;2023-07-13T09:21:52;14.77;;;5.97;;
21517;SDS011;61765;45.794;24.150;2023-07-13T09:30:11;9.52;;;6.13;;
21517;SDS011;61765;45.794;24.150;2023-07-13T09:38:27;15.30;;;5.75;;
21517;SDS011;61765;45.794;24.150;2023-07-13T09:46:37;13.80;;;5.70;;
21517;SDS011;61765;45.794;24.150;2023-07-13T09:54:44;14.23;;;5.45;;
21517;SDS011;61765;45.794;24.150;2023-07-13T10:03:01;13.32;;;5.45;;
21517;SDS011;61765;45.794;24.150;2023-07-13T10:11:09;18.38;;;6.20;;
21517;SDS011;61765;45.794;24.150;2023-07-13T10:19:21;23.23;;;6.32;;
21517;SDS011;61765;45.794;24.150;2023-07-13T10:27:29;17.23;;;6.60;;
21517;SDS011;61765;45.794;24.150;2023-07-13T10:35:41;12.50;;;6.18;;
21517;SDS011;61765;45.794;24.150;2023-07-13T10:43:49;11.85;;;6.00;;
21517;SDS011;61765;45.794;24.150;2023-07-13T10:51:59;12.43;;;5.65;;
21517;SDS011;61765;45.794;24.150;2023-07-13T11:00:15;15.63;;;6.00;;
21517;SDS011;61765;45.794;24.150;2023-07-13T11:08:31;21.33;;;7.90;;
21517;SDS011;61765;45.794;24.150;2023-07-13T11:16:43;13.07;;;6.28;;
21517;SDS011;61765;45.794;24.150;2023-07-13T11:24:56;19.42;;;6.38;;
21517;SDS011;61765;45.794;24.150;2023-07-13T11:33:14;14.48;;;5.60;;
21517;SDS011;61765;45.794;24.150;2023-07-13T11:41:25;13.90;;;5.75;;
21517;SDS011;61765;45.794;24.150;2023-07-13T11:49:38;17.27;;;5.47;;
21517;SDS011;61765;45.794;24.150;2023-07-13T11:57:51;12.68;;;5.05;;
21517;SDS011;61765;45.794;24.150;2023-07-13T12:06:02;22.45;;;6.85;;
21517;SDS011;61765;45.794;24.150;2023-07-13T12:14:16;14.77;;;5.40;;
21517;SDS011;61765;45.794;24.150;2023-07-13T12:22:22;10.80;;;5.32;;
21517;SDS011;61765;45.794;24.150;2023-07-13T12:30:31;11.90;;;5.68;;
21517;SDS011;61765;45.794;24.150;2023-07-13T12:38:37;10.77;;;5.03;;
21517;SDS011;61765;45.794;24.150;2023-07-13T12:46:56;10.90;;;5.32;;
21517;SDS011;61765;45.794;24.150;2023-07-13T12:55:04;20.58;;;5.88;;
21517;SDS011;61765;45.794;24.150;2023-07-13T13:03:21;25.55;;;5.80;;
21517;SDS011;61765;45.794;24.150;2023-07-13T13:11:35;9.70;;;5.55;;
21517;SDS011;61765;45.794;24.150;2023-07-13T13:19:44;12.57;;;5.60;;
21517;SDS011;61765;45.794;24.150;2023-07-13T13:27:49;12.82;;;5.70;;
21517;SDS011;61765;45.794;24.150;2023-07-13T13:35:57;12.73;;;5.85;;
21517;SDS011;61765;45.794;24.150;2023-07-13T13:44:04;13.18;;;5.45;;
21517;SDS011;61765;45.794;24.150;2023-07-13T13:52:15;15.25;;;6.63;;
21517;SDS011;61765;45.794;24.150;2023-07-13T14:00:20;13.85;;;6.22;;
21517;SDS011;61765;45.794;24.150;2023-07-13T14:08:29;18.63;;;6.28;;
21517;SDS011;61765;45.794;24.150;2023-07-13T14:16:35;17.48;;;6.82;;
21517;SDS011;61765;45.794;24.150;2023-07-13T14:24:43;15.10;;;7.03;;
21517;SDS011;61765;45.794;24.150;2023-07-13T14:32:48;24.05;;;8.23;;
21517;SDS011;61765;45.794;24.150;2023-07-13T14:40:58;14.80;;;7.85;;
21517;SDS011;61765;45.794;24.150;2023-07-13T14:49:04;16.17;;;8.30;;
21517;SDS011;61765;45.794;24.150;2023-07-13T14:57:15;18.85;;;8.25;;
21517;SDS011;61765;45.794;24.150;2023-07-13T15:05:23;15.80;;;8.10;;
21517;SDS011;61765;45.794;24.150;2023-07-13T15:13:33;13.27;;;7.63;;
21517;SDS011;61765;45.794;24.150;2023-07-13T15:21:39;18.08;;;8.15;;
21517;SDS011;61765;45.794;24.150;2023-07-13T15:29:47;15.45;;;8.10;;
21517;SDS011;61765;45.794;24.150;2023-07-13T15:37:53;14.63;;;8.65;;
21517;SDS011;61765;45.794;24.150;2023-07-13T15:46:01;19.75;;;9.32;;
21517;SDS011;61765;45.794;24.150;2023-07-13T15:54:08;16.10;;;9.52;;
21517;SDS011;61765;45.794;24.150;2023-07-13T16:10:30;10.82;;;9.40;;
21517;SDS011;61765;45.794;24.150;2023-07-13T16:18:41;17.40;;;9.33;;
21517;SDS011;61765;45.794;24.150;2023-07-13T16:26:47;18.00;;;10.13;;
21517;SDS011;61765;45.794;24.150;2023-07-13T16:34:59;17.65;;;10.85;;
21517;SDS011;61765;45.794;24.150;2023-07-13T16:43:08;21.40;;;10.70;;
21517;SDS011;61765;45.794;24.150;2023-07-13T16:51:27;16.08;;;8.27;;
21517;SDS011;61765;45.794;24.150;2023-07-13T16:59:33;18.13;;;8.82;;
21517;SDS011;61765;45.794;24.150;2023-07-13T17:07:43;18.15;;;8.70;;
21517;SDS011;61765;45.794;24.150;2023-07-13T17:15:52;14.77;;;8.52;;
21517;SDS011;61765;45.794;24.150;2023-07-13T17:24:04;15.05;;;8.27;;
21517;SDS011;61765;45.794;24.150;2023-07-13T17:32:15;14.68;;;8.35;;
21517;SDS011;61765;45.794;24.150;2023-07-13T17:40:25;17.33;;;8.38;;
21517;SDS011;61765;45.794;24.150;2023-07-13T17:48:31;14.07;;;9.35;;
21517;SDS011;61765;45.794;24.150;2023-07-13T17:56:41;21.20;;;9.50;;
21517;SDS011;61765;45.794;24.150;2023-07-13T18:04:47;16.75;;;8.90;;
21517;SDS011;61765;45.794;24.150;2023-07-13T18:12:55;14.23;;;9.60;;
21517;SDS011;61765;45.794;24.150;2023-07-13T18:21:02;15.98;;;10.02;;
21517;SDS011;61765;45.794;24.150;2023-07-13T18:29:12;16.13;;;9.73;;
21517;SDS011;61765;45.794;24.150;2023-07-13T18:37:19;15.27;;;9.18;;
21517;SDS011;61765;45.794;24.150;2023-07-13T18:45:28;17.08;;;10.13;;
21517;SDS011;61765;45.794;24.150;2023-07-13T18:53:33;16.45;;;9.85;;
21517;SDS011;61765;45.794;24.150;2023-07-13T19:01:41;20.40;;;10.63;;
21517;SDS011;61765;45.794;24.150;2023-07-13T19:09:48;20.83;;;10.50;;
21517;SDS011;61765;45.794;24.150;2023-07-13T19:17:56;22.75;;;11.25;;
21517;SDS011;61765;45.794;24.150;2023-07-13T19:26:02;19.02;;;10.02;;
21517;SDS011;61765;45.794;24.150;2023-07-13T19:34:18;14.93;;;10.88;;
21517;SDS011;61765;45.794;24.150;2023-07-13T19:51:04;16.70;;;9.55;;
21517;SDS011;61765;45.794;24.150;2023-07-13T19:59:23;27.80;;;10.80;;
21517;SDS011;61765;45.794;24.150;2023-07-13T20:07:33;16.60;;;10.07;;
21517;SDS011;61765;45.794;24.150;2023-07-13T20:15:39;15.25;;;9.50;;
21517;SDS011;61765;45.794;24.150;2023-07-13T20:23:47;15.63;;;9.02;;
21517;SDS011;61765;45.794;24.150;2023-07-13T20:31:53;17.67;;;9.77;;
21517;SDS011;61765;45.794;24.150;2023-07-13T20:40:05;15.32;;;10.32;;
21517;SDS011;61765;45.794;24.150;2023-07-13T20:48:24;16.13;;;10.25;;
21517;SDS011;61765;45.794;24.150;2023-07-13T20:56:34;33.10;;;12.02;;
21517;SDS011;61765;45.794;24.150;2023-07-13T21:04:40;24.73;;;11.77;;
21517;SDS011;61765;45.794;24.150;2023-07-13T21:12:49;18.52;;;9.85;;
21517;SDS011;61765;45.794;24.150;2023-07-13T21:20:58;23.67;;;11.90;;
21517;SDS011;61765;45.794;24.150;2023-07-13T21:29:06;19.83;;;11.68;;
21517;SDS011;61765;45.794;24.150;2023-07-13T21:37:12;17.48;;;10.70;;
21517;SDS011;61765;45.794;24.150;2023-07-13T21:45:25;15.48;;;10.70;;
21517;SDS011;61765;45.794;24.150;2023-07-13T21:53:32;17.98;;;11.15;;
21517;SDS011;61765;45.794;24.150;2023-07-13T22:01:40;8.50;;;6.00;;
21517;SDS011;61765;45.794;24.150;2023-07-13T22:09:45;10.95;;;4.50;;
21517;SDS011;61765;45.794;24.150;2023-07-13T22:17:55;8.35;;;4.57;;
21517;SDS011;61765;45.794;24.150;2023-07-13T22:26:06;10.63;;;3.80;;
21517;SDS011;61765;45.794;24.150;2023-07-13T22:34:24;7.47;;;4.30;;
21517;SDS011;61765;45.794;24.150;2023-07-13T22:42:30;8.35;;;4.20;;
21517;SDS011;61765;45.794;24.150;2023-07-13T22:50:38;5.75;;;4.35;;
21517;SDS011;61765;45.794;24.150;2023-07-13T22:58:45;8.25;;;4.70;;
21517;SDS011;61765;45.794;24.150;2023-07-13T23:06:53;7.85;;;5.28;;
21517;SDS011;61765;45.794;24.150;2023-07-13T23:14:59;8.77;;;5.03;;
21517;SDS011;61765;45.794;24.150;2023-07-13T23:23:08;10.50;;;4.95;;
21517;SDS011;61765;45.794;24.150;2023-07-13T23:31:17;8.63;;;4.63;;
21517;SDS011;61765;45.794;24.150;2023-07-13T23:39:30;7.95;;;4.40;;
21517;SDS011;61765;45.794;24.150;2023-07-13T23:47:35;8.80;;;4.68;;
21517;SDS011;61765;45.794;24.150;2023-07-13T23:55:44;6.15;;;3.65;;
